Time;durP1;ratioP1;P1;durP2;ratioP2;P2;SDS_P1;SDS_P2;PMS_P1;PMS_P2;Temp;Humidity;BMP_temperature;BMP_pressure;BME280_temperature;BME280_humidity;BME280_pressure;Samples;Min_cycle;Max_cycle;Signal;HPM_P1;HPM_P2
2023/03/08 00:01:45;;;;;;;;;;;;;;;14.41;64.01;100001.75;7398616;19;1130;-41
2023/03/08 00:04:13;;;;;;;;;;;;;;;14.36;64.31;100015.38;7398065;19;1135;-42
2023/03/08 00:06:44;;;;;;;;;;;;;;;14.38;63.92;100004.63;7398938;19;1029;-41
2023/03/08 00:09:12;;;;;;;;;;;;;;;14.49;64.12;100010.78;7398379;19;1129;-42
2023/03/08 00:11:40;;;;;;;;;;;;;;;14.53;64.01;100006.06;7398288;19;1055;-42
2023/03/08 00:14:12;;;;;;;;;;;;;;;14.53;63.89;100003.41;7398224;19;1122;-42
2023/03/08 00:16:40;;;;;;;;;;;;;;;14.50;63.71;100003.63;7398595;19;963;-42
2023/03/08 00:19:09;;;;;;;;;;;;;;;14.47;63.88;100009.22;7396872;19;1814;-42
2023/03/08 00:21:37;;;;;;;;;;;;;;;14.42;63.76;100017.53;7397993;19;1055;-42
2023/03/08 00:24:05;;;;;;;;;;;;;;;14.42;64.20;100019.38;7398901;19;1031;-42
2023/03/08 00:26:34;;;;;;;;;;;;;;;14.41;63.90;100021.19;7397800;19;1188;-42
2023/03/08 00:29:03;;;;;;;;;;;;;;;14.37;64.17;100014.44;7398566;19;996;-41
2023/03/08 00:31:35;;;;;;;;;;;;;;;14.36;64.14;100022.53;7397702;19;1126;-42
2023/03/08 00:34:03;;;;;;;;;;;;;;;14.42;64.08;100019.38;7398555;19;1022;-42
2023/03/08 00:36:32;;;;;;;;;;;;;;;14.50;63.64;100016.94;7397510;19;1043;-42
2023/03/08 00:39:03;;;;;;;;;;;;;;;14.51;63.50;100008.84;7396889;19;1846;-42
2023/03/08 00:41:31;;;;;;;;;;;;;;;14.51;63.83;100003.50;7397259;19;1122;-42
2023/03/08 00:44:00;;;;;;;;;;;;;;;14.47;64.07;100018.03;7397342;19;1059;-41
2023/03/08 00:46:29;;;;;;;;;;;;;;;14.45;63.73;100013.81;7397288;19;1039;-42
2023/03/08 00:49:00;;;;;;;;;;;;;;;14.39;64.08;100001.84;7397258;19;1055;-42
2023/03/08 00:51:28;;;;;;;;;;;;;;;14.41;63.75;100026.50;7398054;19;1026;-42
2023/03/08 00:53:56;;;;;;;;;;;;;;;14.36;64.34;100014.53;7398081;19;962;-42
2023/03/08 00:56:24;;;;;;;;;;;;;;;14.36;64.06;100007.41;7397036;19;1043;-42
2023/03/08 00:58:53;;;;;;;;;;;;;;;14.46;63.60;100007.50;7396050;19;1852;-42
2023/03/08 01:01:24;;;;;;;;;;;;;;;14.47;64.07;100017.19;7396860;19;1384;-42
2023/03/08 01:03:52;;;;;;;;;;;;;;;14.45;63.86;100011.16;7396882;19;1082;-42
2023/03/08 01:06:24;;;;;;;;;;;;;;;14.44;64.13;100014.78;7395466;19;1172;-42
2023/03/08 01:08:53;;;;;;;;;;;;;;;14.38;64.04;100012.59;7404946;19;1066;-41
2023/03/08 01:11:22;;;;;;;;;;;;;;;14.37;64.26;100024.22;7404240;19;1035;-42
2023/03/08 01:13:52;;;;;;;;;;;;;;;14.35;63.91;100026.16;7404176;19;1037;-42
2023/03/08 01:16:23;;;;;;;;;;;;;;;14.35;64.03;100012.88;7404107;19;1005;-42
2023/03/08 01:18:51;;;;;;;;;;;;;;;14.37;64.25;100016.25;7402682;19;1851;-41
2023/03/08 01:21:20;;;;;;;;;;;;;;;14.47;63.88;100022.50;7403893;19;1114;-42
2023/03/08 01:23:52;;;;;;;;;;;;;;;14.51;63.42;100015.97;7404874;19;991;-42
2023/03/08 01:26:22;;;;;;;;;;;;;;;14.50;63.77;100011.59;7404706;19;991;-41
2023/03/08 01:28:51;;;;;;;;;;;;;;;14.43;63.73;99999.78;7403685;19;1071;-42
2023/03/08 01:31:21;;;;;;;;;;;;;;;14.42;64.26;100014.06;7403990;19;1014;-42
2023/03/08 01:33:50;;;;;;;;;;;;;;;14.41;64.33;100026.50;7403558;19;1113;-42
2023/03/08 01:36:21;;;;;;;;;;;;;;;14.35;64.12;100015.53;7404344;19;1046;-42
2023/03/08 01:38:52;;;;;;;;;;;;;;;14.36;64.43;100017.22;7402319;19;1856;-41
2023/03/08 01:41:21;;;;;;;;;;;;;;;14.32;64.40;100022.78;7404135;19;1022;-42
2023/03/08 01:43:51;;;;;;;;;;;;;;;14.35;64.11;100015.53;7403316;19;1066;-42
2023/03/08 01:46:20;;;;;;;;;;;;;;;14.41;63.69;100009.72;7403260;19;1149;-42
2023/03/08 01:48:50;;;;;;;;;;;;;;;14.48;63.99;100010.88;7403969;19;1022;-41
2023/03/08 01:51:21;;;;;;;;;;;;;;;14.50;63.51;100004.50;7402979;19;1117;-41
2023/03/08 01:53:52;;;;;;;;;;;;;;;14.47;63.99;99995.91;7402960;19;1030;-42
2023/03/08 01:56:22;;;;;;;;;;;;;;;14.43;64.01;99997.13;7403215;19;1035;-42
2023/03/08 01:58:52;;;;;;;;;;;;;;;14.38;64.21;99988.66;7402683;19;1844;-42
2023/03/08 02:01:21;;;;;;;;;;;;;;;14.33;64.20;100002.34;7403518;19;1034;-42
2023/03/08 02:03:49;;;;;;;;;;;;;;;14.29;64.14;100007.06;7402589;19;1113;-41
2023/03/08 02:06:18;;;;;;;;;;;;;;;14.28;63.95;100004.53;7401089;19;1171;-42
2023/03/08 02:08:48;;;;;;;;;;;;;;;14.35;64.04;99994.25;7403292;19;1029;-42
2023/03/08 02:11:19;;;;;;;;;;;;;;;14.40;64.22;100000.03;7402348;19;1062;-42
2023/03/08 02:13:48;;;;;;;;;;;;;;;14.44;63.45;99982.84;7403108;19;986;-42
2023/03/08 02:16:18;;;;;;;;;;;;;;;14.43;63.96;99984.66;7402635;19;1033;-42
2023/03/08 02:19:01;;;;;;;;;;;;;;;14.44;64.05;100006.78;7399795;19;1852;-41
2023/03/08 02:21:32;;;;;;;;;;;;;;;14.36;64.24;99996.75;7401931;19;1149;-42
2023/03/08 02:24:07;;;;;;;;;;;;;;;14.33;64.33;100002.34;7402746;19;1030;-42
2023/03/08 02:26:38;;;;;;;;;;;;;;;14.32;64.28;100003.31;7402444;19;1033;-42
2023/03/08 02:29:07;;;;;;;;;;;;;;;14.27;64.02;99998.38;7401766;19;1113;-42
2023/03/08 02:31:36;;;;;;;;;;;;;;;14.26;64.04;100003.81;7402492;19;1015;-41
2023/03/08 02:34:05;;;;;;;;;;;;;;;14.30;64.18;100000.78;7401645;19;1130;-42
2023/03/08 02:36:33;;;;;;;;;;;;;;;14.44;63.78;100004.13;7402135;19;1025;-42
2023/03/08 02:39:02;;;;;;;;;;;;;;;14.42;63.95;100004.25;7400608;19;1854;-42
2023/03/08 02:41:33;;;;;;;;;;;;;;;14.38;63.61;99989.50;7401311;19;1043;-42
2023/03/08 02:44:03;;;;;;;;;;;;;;;14.35;63.99;100000.41;7402130;19;1053;-41
2023/03/08 02:46:31;;;;;;;;;;;;;;;14.31;63.98;99999.81;7401196;19;1126;-42
2023/03/08 02:49:08;;;;;;;;;;;;;;;14.29;64.40;100011.53;7401095;19;1039;-42
2023/03/08 02:51:39;;;;;;;;;;;;;;;14.26;64.26;100004.63;7401630;19;1034;-42
2023/03/08 02:54:07;;;;;;;;;;;;;;;14.26;63.87;99998.47;7400925;19;1044;-42
2023/03/08 02:56:38;;;;;;;;;;;;;;;14.28;64.12;100005.38;7401699;19;1039;-42
2023/03/08 02:59:07;;;;;;;;;;;;;;;14.38;64.09;100005.47;7400636;19;1864;-41
2023/03/08 03:01:37;;;;;;;;;;;;;;;14.46;63.47;99996.88;7401466;19;1046;-42
2023/03/08 03:04:05;;;;;;;;;;;;;;;14.40;63.85;99982.25;7400338;19;1224;-42
2023/03/08 03:06:34;;;;;;;;;;;;;;;14.42;63.71;100003.41;7400494;19;970;-42
2023/03/08 03:09:02;;;;;;;;;;;;;;;14.38;64.12;99994.00;7401401;19;982;-42
2023/03/08 03:11:32;;;;;;;;;;;;;;;14.32;64.15;99996.19;7400301;19;1138;-41
2023/03/08 03:14:03;;;;;;;;;;;;;;;14.29;63.97;100001.75;7400274;19;1191;-42
2023/03/08 03:16:32;;;;;;;;;;;;;;;14.28;63.88;100005.38;7400164;19;1078;-42
2023/03/08 03:19:02;;;;;;;;;;;;;;;14.26;64.08;100006.47;7399498;19;1854;-42
2023/03/08 03:21:30;;;;;;;;;;;;;;;14.28;64.00;100008.06;7399914;19;1043;-42
2023/03/08 03:23:59;;;;;;;;;;;;;;;14.34;63.68;100009.34;7399863;19;1117;-42
2023/03/08 03:26:27;;;;;;;;;;;;;;;14.37;63.73;100013.59;7399869;19;1193;-41
2023/03/08 03:28:58;;;;;;;;;;;;;;;14.37;63.90;100018.91;7400328;19;1038;-42
2023/03/08 03:31:29;;;;;;;;;;;;;;;14.35;63.97;100007.56;7397670;19;959;-42
2023/03/08 03:33:58;;;;;;;;;;;;;;;14.25;63.92;100013.59;7399802;19;1074;-42
2023/03/08 03:36:26;;;;;;;;;;;;;;;14.22;64.01;100008.50;7399482;19;1038;-42
2023/03/08 03:38:55;;;;;;;;;;;;;;;14.25;63.97;100024.25;7399116;19;1848;-42
2023/03/08 03:41:24;;;;;;;;;;;;;;;14.28;64.25;100029.31;7399265;19;1110;-42
2023/03/08 03:43:54;;;;;;;;;;;;;;;14.33;63.68;100019.16;7400195;19;1014;-41
2023/03/08 03:46:23;;;;;;;;;;;;;;;14.30;63.86;100027.38;7400065;19;1117;-41
2023/03/08 03:48:54;;;;;;;;;;;;;;;14.29;64.00;100038.97;7399202;19;1054;-42
2023/03/08 03:51:24;;;;;;;;;;;;;;;14.26;64.12;100041.88;7399853;19;1078;-41
2023/03/08 03:53:52;;;;;;;;;;;;;;;14.26;64.29;100039.22;7398911;19;1043;-42
2023/03/08 03:56:21;;;;;;;;;;;;;;;14.20;64.07;100036.19;7398804;19;1047;-42
2023/03/08 03:58:50;;;;;;;;;;;;;;;14.21;64.17;100012.16;7402010;19;1848;-41
2023/03/08 04:01:19;;;;;;;;;;;;;;;14.29;63.97;100036.31;7398745;19;1098;-42
2023/03/08 04:03:48;;;;;;;;;;;;;;;14.34;63.57;100057.22;7399646;19;1038;-42
2023/03/08 04:06:22;;;;;;;;;;;;;;;14.32;63.67;100044.06;7397774;19;1263;-42
2023/03/08 04:08:50;;;;;;;;;;;;;;;14.35;63.88;100052.78;7398606;19;1059;-42
2023/03/08 04:11:20;;;;;;;;;;;;;;;14.30;63.75;100053.97;7398332;19;1346;-41
2023/03/08 04:13:51;;;;;;;;;;;;;;;14.28;64.16;100041.75;7399179;19;1125;-41
2023/03/08 04:16:21;;;;;;;;;;;;;;;14.27;63.90;100062.19;7398978;19;983;-42
2023/03/08 04:18:49;;;;;;;;;;;;;;;14.21;64.34;100057.38;7397955;19;1848;-41
2023/03/08 04:21:20;;;;;;;;;;;;;;;14.22;63.87;100048.41;7398033;19;1261;-42
2023/03/08 04:23:49;;;;;;;;;;;;;;;14.27;63.87;100045.41;7398843;19;971;-42
2023/03/08 04:26:20;;;;;;;;;;;;;;;14.32;63.99;100054.72;7398748;19;1043;-42
2023/03/08 04:28:49;;;;;;;;;;;;;;;14.31;63.75;100050.34;7397934;19;1971;-42
2023/03/08 04:31:18;;;;;;;;;;;;;;;14.28;63.70;100069.22;7398537;19;1043;-41
2023/03/08 04:33:51;;;;;;;;;;;;;;;14.22;63.75;100048.41;7398623;19;983;-42
2023/03/08 04:36:22;;;;;;;;;;;;;;;14.21;64.11;100064.50;7397617;19;1035;-41
2023/03/08 04:38:50;;;;;;;;;;;;;;;14.20;63.98;100054.81;7398408;19;1177;-42
2023/03/08 04:41:20;;;;;;;;;;;;;;;14.23;63.75;100050.09;7395524;19;1842;-42
2023/03/08 04:43:50;;;;;;;;;;;;;;;14.37;63.77;100050.84;7396913;19;1094;-42
2023/03/08 04:46:20;;;;;;;;;;;;;;;14.40;63.69;100045.25;7397359;19;1181;-42
2023/03/08 04:48:51;;;;;;;;;;;;;;;14.31;63.69;100060.97;7397341;19;1106;-41
2023/03/08 04:51:24;;;;;;;;;;;;;;;14.28;63.77;100058.59;7397217;19;1086;-42
2023/03/08 04:53:52;;;;;;;;;;;;;;;14.25;63.97;100060.63;7397046;19;1034;-42
2023/03/08 04:56:21;;;;;;;;;;;;;;;14.20;63.97;100074.28;7397065;19;1137;-42
2023/03/08 04:58:49;;;;;;;;;;;;;;;14.18;63.97;100062.91;7399682;19;1707;-41
2023/03/08 05:01:18;;;;;;;;;;;;;;;14.18;63.82;100062.91;7395604;19;1849;-42
2023/03/08 05:03:49;;;;;;;;;;;;;;;14.26;63.93;100075.59;7397616;19;1036;-42
2023/03/08 05:06:19;;;;;;;;;;;;;;;14.28;63.93;100077.19;7395211;19;1352;-42
2023/03/08 05:08:50;;;;;;;;;;;;;;;14.29;63.73;100094.00;7397519;19;1185;-42
2023/03/08 05:11:20;;;;;;;;;;;;;;;14.28;63.44;100090.50;7397531;19;954;-41
2023/03/08 05:13:51;;;;;;;;;;;;;;;14.31;63.68;100105.34;7396836;19;1125;-41
2023/03/08 05:16:31;;;;;;;;;;;;;;;14.40;63.25;100090.47;7396660;19;1081;-41
2023/03/08 05:18:59;;;;;;;;;;;;;;;14.37;63.46;100098.72;7396504;19;1047;-42
2023/03/08 05:21:27;;;;;;;;;;;;;;;14.45;63.48;100090.97;7394498;19;1843;-42
2023/03/08 05:24:00;;;;;;;;;;;;;;;14.44;63.31;100098.09;7396488;19;1105;-42
2023/03/08 05:26:30;;;;;;;;;;;;;;;14.38;63.26;100089.75;7396305;19;1058;-42
2023/03/08 05:28:58;;;;;;;;;;;;;;;14.34;63.65;100105.09;7397131;19;994;-41
2023/03/08 05:31:28;;;;;;;;;;;;;;;14.31;63.61;100103.53;7396701;19;1026;-41
2023/03/08 05:33:57;;;;;;;;;;;;;;;14.30;63.44;100111.63;7397101;19;1033;-41
2023/03/08 05:36:26;;;;;;;;;;;;;;;14.28;63.63;100117.09;7396069;19;1051;-42
2023/03/08 05:38:55;;;;;;;;;;;;;;;14.30;63.46;100108.97;7396896;19;1026;-41
2023/03/08 05:41:28;;;;;;;;;;;;;;;14.33;63.25;100112.22;7394927;19;1840;-41
2023/03/08 05:43:57;;;;;;;;;;;;;;;14.40;63.35;100115.25;7396416;19;1033;-42
2023/03/08 05:46:25;;;;;;;;;;;;;;;14.42;63.63;100121.28;7395907;19;1949;-42
2023/03/08 05:48:54;;;;;;;;;;;;;;;14.31;63.37;100111.50;7395799;19;1051;-42
2023/03/08 05:51:22;;;;;;;;;;;;;;;14.33;63.37;100125.53;7395614;19;1134;-42
2023/03/08 05:53:50;;;;;;;;;;;;;;;14.32;63.50;100118.53;7396397;19;1047;-42
2023/03/08 05:56:20;;;;;;;;;;;;;;;14.38;63.42;100106.53;7402828;19;1051;-42
2023/03/08 05:58:52;;;;;;;;;;;;;;;14.47;62.93;100124.44;7403677;19;966;-43
2023/03/08 06:01:22;;;;;;;;;;;;;;;14.56;62.77;100125.53;7401354;19;1867;-42
2023/03/08 06:03:52;;;;;;;;;;;;;;;14.69;62.31;100133.41;7403416;19;1017;-42
2023/03/08 06:06:21;;;;;;;;;;;;;;;14.68;62.50;100129.91;7400864;19;1121;-42
2023/03/08 06:08:49;;;;;;;;;;;;;;;14.61;62.65;100130.53;7403317;19;1065;-42
2023/03/08 06:11:22;;;;;;;;;;;;;;;14.56;62.91;100135.31;7402859;19;951;-42
2023/03/08 06:13:53;;;;;;;;;;;;;;;14.55;62.81;100133.66;7403129;19;1010;-42
2023/03/08 06:16:21;;;;;;;;;;;;;;;14.54;62.68;100148.75;7402170;19;1004;-42
2023/03/08 06:18:49;;;;;;;;;;;;;;;14.57;62.88;100156.53;7402055;19;1043;-42
2023/03/08 06:21:19;;;;;;;;;;;;;;;14.55;62.91;100170.91;7400675;19;1894;-42
2023/03/08 06:23:48;;;;;;;;;;;;;;;14.61;62.71;100143.81;7402069;19;1074;-41
2023/03/08 06:26:17;;;;;;;;;;;;;;;14.77;62.40;100164.75;7401840;19;1118;-42
2023/03/08 06:28:45;;;;;;;;;;;;;;;14.83;62.36;100158.94;7402311;19;982;-42
2023/03/08 06:31:19;;;;;;;;;;;;;;;14.80;62.53;100152.03;7402088;19;1030;-42
2023/03/08 06:33:48;;;;;;;;;;;;;;;14.75;62.22;100150.72;7401701;19;1051;-42
2023/03/08 06:36:18;;;;;;;;;;;;;;;14.73;62.33;100152.66;7402427;19;1006;-42
2023/03/08 06:38:46;;;;;;;;;;;;;;;14.69;62.62;100165.34;7401956;19;930;-42
2023/03/08 06:41:17;;;;;;;;;;;;;;;14.70;62.92;100175.00;7400616;19;1875;-42
2023/03/08 06:43:47;;;;;;;;;;;;;;;14.66;62.95;100157.59;7401739;19;1059;-42
2023/03/08 06:46:20;;;;;;;;;;;;;;;14.63;62.87;100176.47;7401300;19;1090;-42
2023/03/08 06:48:53;;;;;;;;;;;;;;;14.61;62.55;100165.94;7401131;19;1054;-42
2023/03/08 06:51:21;;;;;;;;;;;;;;;14.61;62.84;100176.59;7402051;19;990;-42
2023/03/08 06:53:52;;;;;;;;;;;;;;;14.61;62.93;100203.22;7401764;19;1030;-42
2023/03/08 06:56:25;;;;;;;;;;;;;;;14.60;62.66;100169.56;7400826;19;1134;-41
2023/03/08 06:58:53;;;;;;;;;;;;;;;14.61;62.78;100176.59;7401704;19;1017;-41
2023/03/08 07:01:24;;;;;;;;;;;;;;;14.62;63.03;100177.44;7399110;19;1828;-42
2023/03/08 07:03:52;;;;;;;;;;;;;;;14.65;62.86;100195.84;7400659;19;1086;-42
2023/03/08 07:06:22;;;;;;;;;;;;;;;14.63;62.85;100184.47;7398713;19;1180;-42
2023/03/08 07:08:53;;;;;;;;;;;;;;;14.62;62.63;100180.97;7400470;19;1066;-42
2023/03/08 07:11:22;;;;;;;;;;;;;;;14.78;62.30;100182.38;7401346;19;1018;-42
2023/03/08 07:13:50;;;;;;;;;;;;;;;14.84;62.34;100173.91;7400311;19;1046;-42
2023/03/08 07:16:19;;;;;;;;;;;;;;;14.86;62.43;100190.59;7400711;19;1053;-42
2023/03/08 07:18:51;;;;;;;;;;;;;;;14.86;62.16;100186.16;7400162;19;1014;-42
2023/03/08 07:21:20;;;;;;;;;;;;;;;14.86;62.42;100206.56;7399650;19;2238;-42
2023/03/08 07:23:48;;;;;;;;;;;;;;;14.85;62.69;100195.09;7400924;19;998;-41
2023/03/08 07:26:17;;;;;;;;;;;;;;;14.83;62.79;100193.53;7399893;19;1089;-43
2023/03/08 07:28:45;;;;;;;;;;;;;;;14.84;62.34;100192.53;7399833;19;1122;-42
2023/03/08 07:31:13;;;;;;;;;;;;;;;14.85;62.36;100205.75;7399674;19;1044;-42
2023/03/08 07:33:41;;;;;;;;;;;;;;;14.85;62.43;100196.91;7399627;19;1034;-42
2023/03/08 07:36:12;;;;;;;;;;;;;;;14.84;62.78;100197.88;7399629;19;1099;-42
2023/03/08 07:38:41;;;;;;;;;;;;;;;14.85;62.50;100211.06;7400166;19;975;-42
2023/03/08 07:41:10;;;;;;;;;;;;;;;14.87;62.36;100205.63;7398428;19;1853;-42
2023/03/08 07:43:38;;;;;;;;;;;;;;;14.83;62.75;100197.03;7400227;19;963;-41
2023/03/08 07:46:07;;;;;;;;;;;;;;;14.83;62.41;100215.66;7399306;19;1066;-42
2023/03/08 07:48:36;;;;;;;;;;;;;;;14.83;62.84;100209.50;7399214;19;1163;-42
2023/03/08 07:51:08;;;;;;;;;;;;;;;14.83;62.55;100201.50;7399200;19;1040;-42
2023/03/08 07:53:41;;;;;;;;;;;;;;;14.82;62.83;100215.78;7400059;19;1039;-42
2023/03/08 07:56:12;;;;;;;;;;;;;;;14.86;62.53;100211.91;7399556;19;1018;-42
2023/03/08 07:58:40;;;;;;;;;;;;;;;14.84;62.34;100209.38;7398800;19;1038;-42
2023/03/08 08:01:11;;;;;;;;;;;;;;;14.85;62.82;100212.88;7397885;19;1857;-42
2023/03/08 08:03:39;;;;;;;;;;;;;;;14.85;62.47;100196.91;7399323;19;1029;-42
2023/03/08 08:06:08;;;;;;;;;;;;;;;14.85;62.32;100212.88;7397982;19;1109;-42
2023/03/08 08:08:39;;;;;;;;;;;;;;;14.84;62.40;100214.72;7399412;19;1049;-42
2023/03/08 08:11:16;;;;;;;;;;;;;;;14.85;62.57;100205.75;7398455;19;1024;-42
2023/03/08 08:13:45;;;;;;;;;;;;;;;14.82;62.67;100202.47;7399230;19;1037;-42
2023/03/08 08:16:15;;;;;;;;;;;;;;;14.85;62.59;100229.69;7398088;19;1011;-42
2023/03/08 08:18:44;;;;;;;;;;;;;;;14.82;62.90;100203.34;7397973;19;944;-42
2023/03/08 08:21:13;;;;;;;;;;;;;;;14.87;62.65;100221.59;7398198;19;1849;-42
2023/03/08 08:23:42;;;;;;;;;;;;;;;14.86;62.52;100210.09;7398891;19;956;-42
2023/03/08 08:26:11;;;;;;;;;;;;;;;14.91;62.80;100215.06;7398035;19;1090;-42
2023/03/08 08:28:44;;;;;;;;;;;;;;;14.85;62.34;100211.06;7398626;19;1125;-42
2023/03/08 08:31:13;;;;;;;;;;;;;;;14.85;62.81;100202.25;7397709;19;1062;-42
2023/03/08 08:33:41;;;;;;;;;;;;;;;14.88;62.51;100213.50;7397788;19;1129;-42
2023/03/08 08:36:11;;;;;;;;;;;;;;;14.86;62.48;100207.44;7397705;19;935;-42
2023/03/08 08:38:39;;;;;;;;;;;;;;;14.88;62.48;100216.16;7397710;19;1978;-42
2023/03/08 08:41:09;;;;;;;;;;;;;;;14.87;62.33;100202.97;7396905;19;1858;-42
2023/03/08 08:43:37;;;;;;;;;;;;;;;14.88;62.78;100210.84;7397975;19;971;-42
2023/03/08 08:46:09;;;;;;;;;;;;;;;14.89;62.81;100217.84;7397391;19;1108;-42
2023/03/08 08:48:39;;;;;;;;;;;;;;;14.91;62.44;100209.72;7398317;19;1027;-42
2023/03/08 08:51:08;;;;;;;;;;;;;;;14.91;62.79;100223.03;7397756;19;1183;-42
2023/03/08 08:53:37;;;;;;;;;;;;;;;14.92;62.64;100224.72;7397226;19;1113;-42
2023/03/08 08:56:14;;;;;;;;;;;;;;;14.96;62.67;100223.53;7397512;19;964;-42
2023/03/08 08:58:42;;;;;;;;;;;;;;;14.96;62.33;100214.69;7398093;19;1023;-42
2023/03/08 09:01:19;;;;;;;;;;;;;;;14.96;62.41;100217.34;7397252;19;1841;-42
2023/03/08 09:03:49;;;;;;;;;;;;;;;15.01;62.40;100205.34;7398065;19;1010;-42
2023/03/08 09:06:19;;;;;;;;;;;;;;;14.98;62.50;100223.38;7396030;19;1112;-42
2023/03/08 09:08:47;;;;;;;;;;;;;;;14.97;62.63;100225.22;7396920;19;1042;-42
2023/03/08 09:11:15;;;;;;;;;;;;;;;14.97;62.43;100219.88;7397606;19;963;-42
2023/03/08 09:13:43;;;;;;;;;;;;;;;14.97;62.39;100203.91;7394824;19;1990;-42
2023/03/08 09:16:22;;;;;;;;;;;;;;;14.97;62.59;100209.25;7396602;19;1052;-42
2023/03/08 09:18:52;;;;;;;;;;;;;;;14.96;62.59;100212.88;7396548;19;1066;-42
2023/03/08 09:21:20;;;;;;;;;;;;;;;14.99;62.61;100212.63;7395702;19;1857;-42
2023/03/08 09:23:49;;;;;;;;;;;;;;;14.99;62.65;100225.94;7396438;19;1110;-42
2023/03/08 09:26:18;;;;;;;;;;;;;;;14.96;62.68;100218.22;7396376;19;932;-42
2023/03/08 09:28:46;;;;;;;;;;;;;;;14.99;62.40;100225.94;7400207;19;1066;-42
2023/03/08 09:31:18;;;;;;;;;;;;;;;14.99;62.71;100217.94;7404707;19;987;-42
2023/03/08 09:33:50;;;;;;;;;;;;;;;14.99;62.34;100196.66;7403733;19;1014;-42
2023/03/08 09:36:20;;;;;;;;;;;;;;;15.00;62.44;100197.50;7403564;19;1070;-42
2023/03/08 09:38:49;;;;;;;;;;;;;;;14.99;62.59;100225.09;7404414;19;991;-42
2023/03/08 09:41:39;;;;;;;;;;;;;;;15.00;62.24;100214.34;7402565;19;1859;-42
2023/03/08 09:44:14;;;;;;;;;;;;;;;14.99;62.66;100201.97;7403826;19;971;-42
2023/03/08 09:46:45;;;;;;;;;;;;;;;15.03;62.70;100230.03;7403934;19;1018;-42
2023/03/08 09:49:20;;;;;;;;;;;;;;;14.97;62.63;100213.72;7403280;19;1126;-42
2023/03/08 09:51:50;;;;;;;;;;;;;;;15.00;62.29;100203.69;7403055;19;1035;-42
2023/03/08 09:54:21;;;;;;;;;;;;;;;15.02;62.70;100208.88;7403639;19;1170;-42
2023/03/08 09:56:51;;;;;;;;;;;;;;;15.00;62.66;100186.84;7403595;19;1041;-42
2023/03/08 09:59:23;;;;;;;;;;;;;;;15.01;62.47;100181.41;7403563;19;1017;-42
2023/03/08 10:01:56;;;;;;;;;;;;;;;15.09;62.43;100200.25;7402070;19;1859;-42
2023/03/08 10:04:30;;;;;;;;;;;;;;;15.07;62.37;100202.19;7402107;19;1878;-42
2023/03/08 10:07:07;;;;;;;;;;;;;;;15.08;62.18;100203.91;7403277;19;971;-42
2023/03/08 10:09:40;;;;;;;;;;;;;;;15.06;62.39;100197.84;7400883;19;1073;-42
2023/03/08 10:12:16;;;;;;;;;;;;;;;15.07;62.56;100218.19;7402412;19;1056;-42
2023/03/08 10:14:48;;;;;;;;;;;;;;;15.07;62.57;100204.88;7402340;19;1866;-42
2023/03/08 10:17:20;;;;;;;;;;;;;;;15.01;62.29;100208.03;7403048;19;1038;-42
2023/03/08 10:19:54;;;;;;;;;;;;;;;15.01;62.57;100210.69;7402173;19;1035;-41
2023/03/08 10:22:26;;;;;;;;;;;;;;;15.00;62.58;100208.13;7400364;19;1881;-42
2023/03/08 10:24:58;;;;;;;;;;;;;;;14.95;62.83;100203.19;7401997;19;1141;-42
2023/03/08 10:27:28;;;;;;;;;;;;;;;14.94;62.39;100220.16;7402775;19;1022;-42
2023/03/08 10:29:58;;;;;;;;;;;;;;;14.96;62.65;100218.22;7401837;19;1986;-42
2023/03/08 10:32:27;;;;;;;;;;;;;;;14.94;62.77;100219.28;7402119;19;1033;-42
2023/03/08 10:35:05;;;;;;;;;;;;;;;14.89;63.04;100211.66;7401725;19;1039;-42
2023/03/08 10:37:34;;;;;;;;;;;;;;;14.88;62.58;100207.31;7401664;19;1137;-42
2023/03/08 10:40:04;;;;;;;;;;;;;;;14.89;62.73;100217.00;7401062;19;970;-44
2023/03/08 10:42:33;;;;;;;;;;;;;;;14.88;63.04;100204.63;7399711;19;1848;-42
2023/03/08 10:45:02;;;;;;;;;;;;;;;14.86;63.19;100206.56;7402296;19;1049;-41
2023/03/08 10:47:32;;;;;;;;;;;;;;;14.82;62.81;100199.81;7402161;19;1025;-42
2023/03/08 10:50:15;;;;;;;;;;;;;;;14.84;62.94;100198.75;7402094;19;1034;-42
2023/03/08 10:52:44;;;;;;;;;;;;;;;14.84;62.73;100200.53;7401033;19;1094;-42
2023/03/08 10:55:14;;;;;;;;;;;;;;;14.84;62.91;100205.84;7401651;19;1030;-42
2023/03/08 10:57:46;;;;;;;;;;;;;;;14.81;62.86;100187.47;7400902;19;1038;-42
2023/03/08 11:00:28;;;;;;;;;;;;;;;14.84;62.72;100182.75;7401245;19;988;-42
2023/03/08 11:03:03;;;;;;;;;;;;;;;14.84;63.09;100190.75;7399077;19;1860;-42
2023/03/08 11:05:34;;;;;;;;;;;;;;;14.89;62.99;100183.22;7399584;19;1321;-42
2023/03/08 11:08:03;;;;;;;;;;;;;;;14.90;62.83;100186.72;7400504;19;1947;-42
2023/03/08 11:10:33;;;;;;;;;;;;;;;14.89;62.92;100169.91;7401443;19;983;-42
2023/03/08 11:13:08;;;;;;;;;;;;;;;14.92;62.82;100174.13;7401458;19;1026;-42
2023/03/08 11:15:38;;;;;;;;;;;;;;;14.91;62.94;100173.31;7401308;19;1098;-42
2023/03/08 11:18:14;;;;;;;;;;;;;;;14.98;62.73;100167.47;7400163;19;1319;-42
2023/03/08 11:20:49;;;;;;;;;;;;;;;14.95;62.91;100159.75;7400997;19;1017;-42
2023/03/08 11:23:23;;;;;;;;;;;;;;;14.97;62.98;100163.97;7399045;19;1856;-42
2023/03/08 11:25:56;;;;;;;;;;;;;;;14.98;62.52;100154.16;7399958;19;1102;-42
2023/03/08 11:28:33;;;;;;;;;;;;;;;14.98;62.97;100165.69;7399918;19;1051;-42
2023/03/08 11:31:15;;;;;;;;;;;;;;;14.97;62.89;100161.31;7400299;19;990;-42
2023/03/08 11:33:59;;;;;;;;;;;;;;;14.97;62.45;100148.00;7399699;19;1000;-42
2023/03/08 11:36:34;;;;;;;;;;;;;;;14.99;62.95;100156.72;7399653;19;1054;-42
2023/03/08 11:39:07;;;;;;;;;;;;;;;15.01;62.38;100144.13;7400374;19;959;-42
2023/03/08 11:41:43;;;;;;;;;;;;;;;15.03;62.58;100144.00;7399149;19;1830;-42
2023/03/08 11:44:17;;;;;;;;;;;;;;;15.02;62.76;100139.63;7399421;19;1055;-42
2023/03/08 11:46:54;;;;;;;;;;;;;;;15.02;62.33;100132.50;7400148;19;998;-42
2023/03/08 11:49:31;;;;;;;;;;;;;;;15.02;62.43;100143.16;7400075;19;1136;-42
2023/03/08 11:52:07;;;;;;;;;;;;;;;15.00;62.56;100139.78;7396773;19;1174;-42
2023/03/08 11:54:43;;;;;;;;;;;;;;;14.96;62.66;100117.03;7399727;19;1027;-42
2023/03/08 11:57:12;;;;;;;;;;;;;;;15.03;62.71;100131.53;7398966;19;1105;-41
2023/03/08 11:59:44;;;;;;;;;;;;;;;14.99;62.43;100138.06;7398884;19;1140;-42
2023/03/08 12:02:35;;;;;;;;;;;;;;;15.00;62.58;100131.78;7398111;19;1848;-42
2023/03/08 12:05:09;;;;;;;;;;;;;;;15.03;62.49;100128.88;7398060;19;1287;-42
2023/03/08 12:07:41;;;;;;;;;;;;;;;15.03;62.54;100134.19;7398513;19;1984;-42
2023/03/08 12:10:16;;;;;;;;;;;;;;;15.06;62.53;100138.41;7399017;19;1045;-42
2023/03/08 12:12:46;;;;;;;;;;;;;;;15.08;62.74;100142.66;7399330;19;1007;-42
2023/03/08 12:15:22;;;;;;;;;;;;;;;15.08;62.45;100133.81;7398496;19;1042;-42
2023/03/08 12:17:53;;;;;;;;;;;;;;;15.10;62.64;100135.38;7398446;19;1127;-42
2023/03/08 12:20:22;;;;;;;;;;;;;;;15.11;62.44;100133.56;7398173;19;1047;-42
2023/03/08 12:22:56;;;;;;;;;;;;;;;15.10;62.40;100123.91;7397252;19;1856;-42
2023/03/08 12:25:28;;;;;;;;;;;;;;;15.13;62.54;100112.16;7398511;19;979;-42
2023/03/08 12:27:59;;;;;;;;;;;;;;;15.08;62.52;100126.69;7398469;19;915;-42
2023/03/08 12:30:35;;;;;;;;;;;;;;;15.10;62.37;100114.09;7398354;19;1222;-42
2023/03/08 12:33:05;;;;;;;;;;;;;;;15.13;62.44;100123.63;7397858;19;1058;-42
2023/03/08 12:35:35;;;;;;;;;;;;;;;15.09;62.34;100114.22;7398632;19;1041;-42
2023/03/08 12:38:09;;;;;;;;;;;;;;;15.14;62.67;100116.47;7398535;19;1022;-42
2023/03/08 12:40:39;;;;;;;;;;;;;;;15.13;62.60;100125.47;7398055;19;1042;-42
2023/03/08 12:43:08;;;;;;;;;;;;;;;15.13;62.29;100112.16;7396324;19;1840;-42
2023/03/08 12:45:37;;;;;;;;;;;;;;;15.11;62.25;100104.28;7398323;19;1065;-42
2023/03/08 12:48:19;;;;;;;;;;;;;;;15.14;62.37;100116.47;7398519;19;1021;-42
2023/03/08 12:50:48;;;;;;;;;;;;;;;15.10;62.19;100122.06;7398048;19;1185;-42
2023/03/08 12:53:32;;;;;;;;;;;;;;;15.13;62.25;100114.81;7397816;19;1300;-41
2023/03/08 12:56:02;;;;;;;;;;;;;;;15.15;62.20;100104.88;7397160;19;1030;-42
2023/03/08 12:58:31;;;;;;;;;;;;;;;15.14;62.65;100108.50;7397152;19;1007;-42
2023/03/08 13:01:01;;;;;;;;;;;;;;;15.14;62.47;100116.47;7397662;19;1042;-42
2023/03/08 13:03:37;;;;;;;;;;;;;;;15.18;62.38;100115.25;7398977;19;1841;-42
2023/03/08 13:06:21;;;;;;;;;;;;;;;15.11;62.28;100107.78;7403229;19;1141;-42